Time;durP1;ratioP1;P1;durP2;ratioP2;P2;SDS_P1;SDS_P2;PMS_P1;PMS_P2;Temp;Humidity;BMP_temperature;BMP_pressure;BME280_temperature;BME280_humidity;BME280_pressure;Samples;Min_cycle;Max_cycle;Signal;HPM_P1;HPM_P2
2023/03/08 00:01:30;;;;;;;;;;;;;;;4.21;62.13;95431.02;109052;1250;105260;-73
2023/03/08 00:03:58;;;;;;;;;;;;;;;4.17;62.24;95430.67;109083;1250;101443;-75
2023/03/08 00:06:27;;;;;;;;;;;;;;;4.17;62.29;95436.59;109020;1250;99613;-75
2023/03/08 00:08:58;;;;;;;;;;;;;;;4.15;62.47;95434.01;108979;1251;96915;-73
2023/03/08 00:11:26;;;;;;;;;;;;;;;4.14;62.45;95428.06;109047;1250;96998;-73
2023/03/08 00:13:55;;;;;;;;;;;;;;;4.11;62.54;95425.88;109051;1250;104873;-73
2023/03/08 00:16:23;;;;;;;;;;;;;;;4.09;62.79;95429.81;109060;1251;101300;-73
2023/03/08 00:18:51;;;;;;;;;;;;;;;4.10;62.75;95430.61;109051;1249;100023;-74
2023/03/08 00:21:22;;;;;;;;;;;;;;;4.12;62.79;95430.01;109033;1250;96900;-73
2023/03/08 00:23:53;;;;;;;;;;;;;;;4.12;62.88;95442.29;109069;1249;96925;-73
2023/03/08 00:26:22;;;;;;;;;;;;;;;4.12;62.89;95440.80;109012;1250;104785;-73
2023/03/08 00:28:49;;;;;;;;;;;;;;;4.12;62.96;95437.98;109043;1250;101260;-73
2023/03/08 00:31:17;;;;;;;;;;;;;;;4.12;63.09;95431.03;109005;1251;98473;-73
2023/03/08 00:33:46;;;;;;;;;;;;;;;4.15;63.22;95427.64;108687;1250;97042;-74
2023/03/08 00:36:17;;;;;;;;;;;;;;;4.15;63.03;95425.10;109015;1250;97802;-73
2023/03/08 00:38:46;;;;;;;;;;;;;;;4.15;63.23;95425.71;109050;1251;104794;-73
2023/03/08 00:41:14;;;;;;;;;;;;;;;4.15;63.24;95420.79;108769;1249;100367;-73
2023/03/08 00:43:42;;;;;;;;;;;;;;;4.17;63.18;95419.09;109017;1250;99982;-73
2023/03/08 00:46:11;;;;;;;;;;;;;;;4.18;63.23;95416.98;109004;1249;97137;-72
2023/03/08 00:48:39;;;;;;;;;;;;;;;4.19;63.29;95415.66;109065;1253;97125;-74
2023/03/08 00:51:08;;;;;;;;;;;;;;;4.19;63.32;95412.42;109082;1251;105073;-72
2023/03/08 00:53:36;;;;;;;;;;;;;;;4.20;63.18;95404.23;109041;1249;100206;-74
2023/03/08 00:56:04;;;;;;;;;;;;;;;4.22;63.34;95402.94;109021;1250;98577;-73
2023/03/08 00:58:32;;;;;;;;;;;;;;;4.24;63.39;95398.88;109010;1249;96846;-75
2023/03/08 01:01:00;;;;;;;;;;;;;;;4.25;63.31;95400.64;108669;1251;97040;-73
2023/03/08 01:03:28;;;;;;;;;;;;;;;4.26;63.21;95397.17;109006;1250;104855;-73
2023/03/08 01:05:57;;;;;;;;;;;;;;;4.27;63.24;95397.54;108743;1250;101040;-72
2023/03/08 01:08:26;;;;;;;;;;;;;;;4.29;63.34;95395.26;108966;1249;99869;-73
2023/03/08 01:10:57;;;;;;;;;;;;;;;4.31;63.26;95401.24;108999;1250;96943;-73
2023/03/08 01:13:26;;;;;;;;;;;;;;;4.31;63.23;95403.55;109061;1250;96932;-73
2023/03/08 01:15:54;;;;;;;;;;;;;;;4.31;63.13;95403.27;109017;1250;103853;-74
2023/03/08 01:18:22;;;;;;;;;;;;;;;4.30;63.21;95395.66;108826;1251;101469;-75
2023/03/08 01:21:04;;;;;;;;;;;;;;;4.31;63.26;95392.49;108874;1251;100127;-75
2023/03/08 01:23:32;;;;;;;;;;;;;;;4.32;63.26;95394.02;108709;1249;97047;-73
2023/03/08 01:26:04;;;;;;;;;;;;;;;4.32;63.38;95400.63;108974;1251;96961;-73
2023/03/08 01:28:33;;;;;;;;;;;;;;;4.33;63.62;95406.12;109004;1250;113811;-74
2023/03/08 01:31:05;;;;;;;;;;;;;;;4.32;63.47;95405.02;108977;1249;101324;-75
2023/03/08 01:33:34;;;;;;;;;;;;;;;4.32;63.45;95409.66;108989;1249;99015;-73
2023/03/08 01:36:05;;;;;;;;;;;;;;;4.33;63.39;95408.84;108972;1250;96946;-73
2023/03/08 01:38:34;;;;;;;;;;;;;;;4.33;63.26;95406.94;108755;1250;97903;-73
2023/03/08 01:41:03;;;;;;;;;;;;;;;4.34;63.22;95401.35;108962;1250;103545;-73
2023/03/08 01:43:32;;;;;;;;;;;;;;;4.34;63.23;95397.65;108922;1251;101216;-73
2023/03/08 01:46:10;;;;;;;;;;;;;;;4.33;63.25;95400.58;108735;1251;100065;-73
2023/03/08 01:48:40;;;;;;;;;;;;;;;4.33;62.98;95399.88;109021;1249;96958;-73
2023/03/08 01:51:11;;;;;;;;;;;;;;;4.33;62.93;95401.48;109043;1249;97095;-74
2023/03/08 01:53:40;;;;;;;;;;;;;;;4.34;62.79;95400.91;109030;1250;104439;-73
2023/03/08 01:56:10;;;;;;;;;;;;;;;4.35;62.79;95403.44;109023;1250;101074;-75
2023/03/08 01:58:40;;;;;;;;;;;;;;;4.35;62.48;95404.77;109036;1250;99831;-73
2023/03/08 02:01:08;;;;;;;;;;;;;;;4.35;62.20;95400.33;109046;1250;97263;-72
2023/03/08 02:03:36;;;;;;;;;;;;;;;4.36;62.17;95403.60;109107;1249;97166;-73
2023/03/08 02:06:04;;;;;;;;;;;;;;;4.37;61.86;95401.86;108852;1251;104495;-75
2023/03/08 02:08:33;;;;;;;;;;;;;;;4.38;61.47;95412.38;108989;1250;101449;-73
2023/03/08 02:11:01;;;;;;;;;;;;;;;4.40;61.22;95411.05;108977;1249;100056;-73
2023/03/08 02:13:30;;;;;;;;;;;;;;;4.41;61.04;95410.59;109055;1250;96914;-73
2023/03/08 02:15:59;;;;;;;;;;;;;;;4.44;60.76;95409.17;108738;1250;97382;-73
2023/03/08 02:18:27;;;;;;;;;;;;;;;4.46;60.75;95405.61;109079;1250;113567;-73
2023/03/08 02:20:55;;;;;;;;;;;;;;;4.47;60.66;95407.76;109058;1250;99988;-73
2023/03/08 02:23:24;;;;;;;;;;;;;;;4.48;60.56;95411.08;108828;1251;99177;-73
2023/03/08 02:25:56;;;;;;;;;;;;;;;4.47;60.48;95413.30;108984;1251;96929;-73
2023/03/08 02:28:26;;;;;;;;;;;;;;;4.46;60.25;95417.36;109058;1249;97056;-73
2023/03/08 02:30:54;;;;;;;;;;;;;;;4.46;60.19;95414.16;109050;1249;103475;-73
2023/03/08 02:33:23;;;;;;;;;;;;;;;4.46;59.94;95418.85;108976;1251;100710;-73
2023/03/08 02:35:51;;;;;;;;;;;;;;;4.46;59.77;95416.35;109043;1250;99406;-73
2023/03/08 02:38:20;;;;;;;;;;;;;;;4.46;59.69;95417.63;108952;1250;96918;-74
2023/03/08 02:40:50;;;;;;;;;;;;;;;4.45;59.64;95416.44;109034;1251;97104;-73
2023/03/08 02:43:18;;;;;;;;;;;;;;;4.45;59.50;95421.70;109020;1250;104663;-73
2023/03/08 02:45:46;;;;;;;;;;;;;;;4.44;59.48;95425.32;109031;1249;101229;-74
2023/03/08 02:48:15;;;;;;;;;;;;;;;4.44;59.39;95423.64;108970;1250;99805;-73
2023/03/08 02:50:43;;;;;;;;;;;;;;;4.43;59.10;95424.10;109024;1250;96897;-74
2023/03/08 02:53:11;;;;;;;;;;;;;;;4.42;58.94;95422.63;108677;1251;97079;-73
2023/03/08 02:55:39;;;;;;;;;;;;;;;4.41;59.03;95421.31;109019;1250;105025;-73
2023/03/08 02:58:08;;;;;;;;;;;;;;;4.40;58.80;95414.50;109032;1250;101453;-73
2023/03/08 03:00:36;;;;;;;;;;;;;;;4.40;58.60;95416.31;108945;1250;98585;-75
2023/03/08 03:03:04;;;;;;;;;;;;;;;4.40;58.51;95419.77;109031;1249;96909;-73
2023/03/08 03:05:32;;;;;;;;;;;;;;;4.39;58.38;95418.83;109048;1250;97016;-72
2023/03/08 03:08:00;;;;;;;;;;;;;;;4.38;58.38;95415.50;108982;1250;104917;-74
2023/03/08 03:10:28;;;;;;;;;;;;;;;4.39;58.25;95416.86;109055;1250;109916;-73
2023/03/08 03:12:56;;;;;;;;;;;;;;;4.39;58.26;95422.53;108940;1249;99750;-73
2023/03/08 03:15:24;;;;;;;;;;;;;;;4.39;58.12;95423.27;108992;1250;96891;-75
2023/03/08 03:17:53;;;;;;;;;;;;;;;4.38;58.21;95425.70;109043;1250;97164;-73
2023/03/08 03:20:21;;;;;;;;;;;;;;;4.38;58.22;95430.59;109041;1250;104986;-73
2023/03/08 03:22:49;;;;;;;;;;;;;;;4.37;58.10;95433.39;108740;1250;101361;-75
2023/03/08 03:25:16;;;;;;;;;;;;;;;4.35;58.09;95436.99;108999;1249;100288;-73
2023/03/08 03:27:44;;;;;;;;;;;;;;;4.33;58.01;95436.52;109038;1250;96982;-73
2023/03/08 03:30:12;;;;;;;;;;;;;;;4.32;57.95;95438.46;109013;1250;97008;-73
2023/03/08 03:32:40;;;;;;;;;;;;;;;4.31;57.82;95441.65;109058;1250;105226;-73
2023/03/08 03:35:09;;;;;;;;;;;;;;;4.30;57.85;95443.62;109052;1250;101454;-73
2023/03/08 03:37:36;;;;;;;;;;;;;;;4.28;57.89;95445.61;108706;1250;100054;-74
2023/03/08 03:40:05;;;;;;;;;;;;;;;4.26;57.79;95445.01;109025;1250;96907;-73
2023/03/08 03:42:33;;;;;;;;;;;;;;;4.25;57.77;95450.88;109026;1250;96941;-74
2023/03/08 03:45:04;;;;;;;;;;;;;;;4.23;57.80;95457.88;109017;1250;104847;-73
2023/03/08 03:47:32;;;;;;;;;;;;;;;4.22;57.81;95465.31;109065;1250;101376;-75
2023/03/08 03:50:00;;;;;;;;;;;;;;;4.20;57.62;95473.34;109017;1249;100126;-73
2023/03/08 03:52:28;;;;;;;;;;;;;;;4.19;57.64;95476.19;109056;1249;96908;-72
2023/03/08 03:54:56;;;;;;;;;;;;;;;4.19;57.57;95484.40;109036;1250;97030;-73
2023/03/08 03:57:25;;;;;;;;;;;;;;;4.18;57.55;95488.47;109037;1250;104921;-73
2023/03/08 03:59:53;;;;;;;;;;;;;;;4.17;57.58;95487.98;108750;1251;100296;-74
2023/03/08 04:02:21;;;;;;;;;;;;;;;4.18;57.67;95493.40;109013;1250;100250;-73
2023/03/08 04:04:50;;;;;;;;;;;;;;;4.17;57.61;95495.61;108704;1250;97065;-75
2023/03/08 04:07:18;;;;;;;;;;;;;;;4.16;57.47;95494.89;109087;1250;97093;-73
2023/03/08 04:09:47;;;;;;;;;;;;;;;4.15;57.45;95496.87;109027;1250;105156;-73
2023/03/08 04:12:15;;;;;;;;;;;;;;;4.13;57.49;95493.38;109070;1249;100135;-72
2023/03/08 04:14:43;;;;;;;;;;;;;;;4.11;57.59;95493.86;108995;1249;99892;-73
2023/03/08 04:17:11;;;;;;;;;;;;;;;4.09;57.54;95493.92;108991;1251;96883;-73
2023/03/08 04:19:39;;;;;;;;;;;;;;;4.08;57.44;95496.27;108771;1249;97898;-73
2023/03/08 04:22:07;;;;;;;;;;;;;;;4.07;57.43;95497.89;109005;1250;103631;-73
2023/03/08 04:24:35;;;;;;;;;;;;;;;4.06;57.41;95492.18;109076;1250;101359;-73
2023/03/08 04:27:03;;;;;;;;;;;;;;;4.05;57.36;95496.05;108762;1250;100129;-74
2023/03/08 04:29:31;;;;;;;;;;;;;;;4.04;57.27;95499.34;108704;1249;96902;-75
2023/03/08 04:31:59;;;;;;;;;;;;;;;4.03;57.30;95506.27;108721;1251;96985;-72
2023/03/08 04:34:27;;;;;;;;;;;;;;;4.01;57.42;95509.20;109064;1250;105105;-73
2023/03/08 04:36:55;;;;;;;;;;;;;;;3.99;57.55;95506.39;109006;1250;101399;-75
2023/03/08 04:39:23;;;;;;;;;;;;;;;3.97;57.49;95507.69;109028;1249;99034;-74
2023/03/08 04:41:51;;;;;;;;;;;;;;;3.94;57.44;95514.89;108981;1250;96866;-73
2023/03/08 04:44:19;;;;;;;;;;;;;;;3.92;57.50;95521.31;109061;1250;97200;-73
2023/03/08 04:46:47;;;;;;;;;;;;;;;3.89;57.54;95524.95;109009;1250;104455;-73
2023/03/08 04:49:15;;;;;;;;;;;;;;;3.85;57.56;95530.23;109025;1249;101406;-73
2023/03/08 04:51:43;;;;;;;;;;;;;;;3.84;57.69;95535.42;108992;1249;99007;-72
2023/03/08 04:54:11;;;;;;;;;;;;;;;3.83;57.77;95538.45;108987;1250;96947;-74
2023/03/08 04:56:39;;;;;;;;;;;;;;;3.81;57.84;95536.70;109077;1250;97174;-73
2023/03/08 04:59:07;;;;;;;;;;;;;;;3.81;57.87;95545.40;109049;1250;105025;-73
2023/03/08 05:01:35;;;;;;;;;;;;;;;3.81;58.07;95547.70;109023;1251;101240;-73
2023/03/08 05:04:03;;;;;;;;;;;;;;;3.82;58.01;95539.77;108993;1249;98716;-74
2023/03/08 05:06:31;;;;;;;;;;;;;;;3.83;58.06;95541.58;109006;1249;96916;-73
2023/03/08 05:08:59;;;;;;;;;;;;;;;3.84;57.98;95541.54;109064;1249;96933;-73
2023/03/08 05:11:27;;;;;;;;;;;;;;;3.84;58.07;95544.86;108997;1250;104977;-73
2023/03/08 05:13:57;;;;;;;;;;;;;;;3.84;58.14;95547.00;109021;1250;101579;-74
2023/03/08 05:16:25;;;;;;;;;;;;;;;3.84;58.06;95549.63;108977;1249;107602;-74
2023/03/08 05:18:53;;;;;;;;;;;;;;;3.84;58.06;95550.69;109013;1250;96866;-72
2023/03/08 05:21:23;;;;;;;;;;;;;;;3.84;58.12;95554.27;109078;1249;97022;-72
2023/03/08 05:23:51;;;;;;;;;;;;;;;3.83;58.22;95561.98;109074;1250;105234;-74
2023/03/08 05:26:19;;;;;;;;;;;;;;;3.83;58.13;95564.37;109068;1250;101768;-73
2023/03/08 05:28:47;;;;;;;;;;;;;;;3.83;58.22;95560.84;109034;1249;99889;-74
2023/03/08 05:31:16;;;;;;;;;;;;;;;3.83;58.19;95565.06;109003;1249;97352;-73
2023/03/08 05:33:45;;;;;;;;;;;;;;;3.81;58.30;95561.91;108744;1251;97145;-74
2023/03/08 05:36:14;;;;;;;;;;;;;;;3.80;58.31;95558.92;108951;1250;105241;-75
2023/03/08 05:38:42;;;;;;;;;;;;;;;3.79;58.37;95559.24;108846;1251;101307;-74
2023/03/08 05:41:12;;;;;;;;;;;;;;;3.79;58.41;95563.36;109016;1249;100024;-75
2023/03/08 05:43:40;;;;;;;;;;;;;;;3.80;58.26;95569.60;108981;1249;97123;-73
2023/03/08 05:46:10;;;;;;;;;;;;;;;3.81;58.46;95562.98;109015;1250;96998;-72
2023/03/08 05:48:42;;;;;;;;;;;;;;;3.84;58.48;95570.94;109044;1250;104654;-74
2023/03/08 05:51:17;;;;;;;;;;;;;;;3.86;58.42;95572.36;109067;1249;101355;-73
2023/03/08 05:53:45;;;;;;;;;;;;;;;3.87;58.45;95576.66;108980;1249;99850;-74
2023/03/08 05:56:14;;;;;;;;;;;;;;;3.88;58.45;95581.89;109021;1249;96903;-74
2023/03/08 05:58:42;;;;;;;;;;;;;;;3.90;58.33;95584.11;109054;1250;96948;-73
2023/03/08 06:01:11;;;;;;;;;;;;;;;3.92;58.48;95588.05;109063;1250;106029;-73
2023/03/08 06:03:39;;;;;;;;;;;;;;;3.93;58.43;95593.34;109062;1249;101484;-73
2023/03/08 06:06:07;;;;;;;;;;;;;;;3.95;58.37;95598.80;108941;1251;100099;-73
2023/03/08 06:08:36;;;;;;;;;;;;;;;3.95;58.27;95597.32;108967;1250;97213;-73
2023/03/08 06:11:04;;;;;;;;;;;;;;;3.96;58.09;95595.05;109043;1250;97176;-74
2023/03/08 06:13:32;;;;;;;;;;;;;;;3.97;58.09;95600.05;108671;1250;104069;-73
2023/03/08 06:16:00;;;;;;;;;;;;;;;4.00;58.07;95606.48;109038;1250;101061;-73
2023/03/08 06:18:28;;;;;;;;;;;;;;;3.99;57.93;95606.39;108995;1249;99778;-73
2023/03/08 06:20:57;;;;;;;;;;;;;;;3.99;57.71;95608.36;109021;1250;96858;-72
2023/03/08 06:23:25;;;;;;;;;;;;;;;3.99;57.61;95609.19;109031;1250;97012;-73
2023/03/08 06:25:53;;;;;;;;;;;;;;;4.01;57.59;95610.41;108993;1249;113190;-72
2023/03/08 06:28:21;;;;;;;;;;;;;;;4.03;57.51;95614.84;109018;1250;101443;-73
2023/03/08 06:30:49;;;;;;;;;;;;;;;4.04;57.47;95614.52;108663;1250;99665;-73
2023/03/08 06:33:18;;;;;;;;;;;;;;;4.05;57.58;95614.39;109002;1250;96929;-74
2023/03/08 06:36:15;;;;;;;;;;;;;;;4.05;57.47;95616.27;109013;1250;96921;-73
2023/03/08 06:38:43;;;;;;;;;;;;;;;4.07;57.37;95618.58;108300;1258;105025;-74
2023/03/08 06:41:12;;;;;;;;;;;;;;;4.10;57.34;95618.89;108313;1257;101280;-73
2023/03/08 06:43:40;;;;;;;;;;;;;;;4.12;57.30;95625.14;108267;1258;99819;-74
2023/03/08 06:46:12;;;;;;;;;;;;;;;4.14;57.29;95627.71;108124;1258;97007;-73
2023/03/08 06:48:40;;;;;;;;;;;;;;;4.16;57.30;95630.92;108168;1258;97086;-74
2023/03/08 06:51:09;;;;;;;;;;;;;;;4.20;57.25;95628.64;108187;1258;104514;-73
2023/03/08 06:53:37;;;;;;;;;;;;;;;4.23;57.27;95633.08;108314;1258;110108;-73
2023/03/08 06:56:06;;;;;;;;;;;;;;;4.28;57.27;95633.92;108148;1259;99923;-73
2023/03/08 06:58:35;;;;;;;;;;;;;;;4.32;57.29;95636.98;108187;1259;97041;-73
2023/03/08 07:01:04;;;;;;;;;;;;;;;4.37;57.26;95644.67;108289;1258;97184;-74
2023/03/08 07:03:33;;;;;;;;;;;;;;;4.40;57.17;95644.77;108294;1258;104100;-74
2023/03/08 07:06:02;;;;;;;;;;;;;;;4.44;57.28;95643.11;108323;1257;101327;-73
2023/03/08 07:08:30;;;;;;;;;;;;;;;4.50;57.24;95647.84;108298;1258;100026;-73
2023/03/08 07:10:58;;;;;;;;;;;;;;;4.56;57.08;95646.48;108295;1258;97296;-73
2023/03/08 07:13:27;;;;;;;;;;;;;;;4.62;57.10;95643.48;108324;1258;97064;-74
2023/03/08 07:15:56;;;;;;;;;;;;;;;4.70;57.09;95642.30;108454;1251;105083;-73
2023/03/08 07:18:24;;;;;;;;;;;;;;;4.78;57.02;95639.82;108999;1250;100252;-73
2023/03/08 07:20:53;;;;;;;;;;;;;;;4.84;57.12;95645.85;108929;1250;100096;-73
2023/03/08 07:23:21;;;;;;;;;;;;;;;4.88;56.87;95648.48;109033;1250;96836;-73
2023/03/08 07:25:48;;;;;;;;;;;;;;;4.92;56.87;95657.15;109066;1250;96934;-74
2023/03/08 07:28:16;;;;;;;;;;;;;;;4.98;56.71;95657.21;108981;1251;104768;-73
2023/03/08 07:30:48;;;;;;;;;;;;;;;5.03;56.75;95661.08;109027;1249;101392;-73
2023/03/08 07:33:17;;;;;;;;;;;;;;;5.08;56.71;95663.21;108988;1250;100368;-73
2023/03/08 07:35:45;;;;;;;;;;;;;;;5.15;56.48;95666.20;108988;1253;97646;-74
2023/03/08 07:38:13;;;;;;;;;;;;;;;5.19;56.30;95669.48;109039;1250;96947;-73
2023/03/08 07:40:44;;;;;;;;;;;;;;;5.28;56.35;95670.71;108788;1250;106031;-75
2023/03/08 07:43:12;;;;;;;;;;;;;;;5.36;56.25;95677.77;108900;1250;101412;-74
2023/03/08 07:45:40;;;;;;;;;;;;;;;5.46;56.18;95676.11;109012;1251;99044;-74
2023/03/08 07:48:08;;;;;;;;;;;;;;;5.68;55.96;95674.19;109015;1249;96935;-74
2023/03/08 07:50:37;;;;;;;;;;;;;;;5.89;55.63;95673.18;109003;1250;97231;-73
2023/03/08 07:53:06;;;;;;;;;;;;;;;6.13;55.60;95675.79;109010;1250;104818;-75
2023/03/08 07:55:34;;;;;;;;;;;;;;;6.33;55.32;95675.95;109012;1249;101300;-74
2023/03/08 07:58:02;;;;;;;;;;;;;;;6.50;54.98;95678.73;108834;1249;212116;-73
2023/03/08 08:00:31;;;;;;;;;;;;;;;6.67;54.55;95682.05;108984;1249;96977;-73
2023/03/08 08:02:59;;;;;;;;;;;;;;;6.80;54.21;95687.43;108952;1250;97000;-73
2023/03/08 08:05:27;;;;;;;;;;;;;;;7.10;54.13;95690.59;109004;1250;103564;-74
2023/03/08 08:07:55;;;;;;;;;;;;;;;7.44;54.04;95696.00;109023;1250;101277;-74
2023/03/08 08:10:23;;;;;;;;;;;;;;;7.76;53.50;95705.27;109022;1249;99495;-73
2023/03/08 08:12:51;;;;;;;;;;;;;;;7.99;52.90;95707.20;108992;1250;96834;-73
2023/03/08 08:15:19;;;;;;;;;;;;;;;8.18;52.31;95701.77;109045;1251;96907;-73
2023/03/08 08:17:47;;;;;;;;;;;;;;;8.44;52.13;95706.64;108932;1249;105011;-74
2023/03/08 08:20:16;;;;;;;;;;;;;;;8.60;51.70;95710.40;108971;1250;100083;-75
2023/03/08 08:22:44;;;;;;;;;;;;;;;8.51;51.10;95709.86;108971;1249;99140;-73
2023/03/08 08:25:12;;;;;;;;;;;;;;;8.33;50.74;95710.84;108942;1250;97225;-74
2023/03/08 08:27:40;;;;;;;;;;;;;;;8.18;50.78;95717.67;108982;1249;97769;-74
2023/03/08 08:30:08;;;;;;;;;;;;;;;8.09;50.63;95718.13;108699;1250;104906;-75
2023/03/08 08:32:36;;;;;;;;;;;;;;;7.95;50.17;95721.20;108987;1249;101647;-73
2023/03/08 08:35:04;;;;;;;;;;;;;;;7.82;50.15;95721.61;108972;1250;100139;-73
2023/03/08 08:37:33;;;;;;;;;;;;;;;7.68;50.18;95718.52;108892;1251;96962;-74
2023/03/08 08:40:02;;;;;;;;;;;;;;;7.62;50.15;95711.43;109000;1249;97304;-73
2023/03/08 08:42:30;;;;;;;;;;;;;;;7.51;50.27;95705.67;108990;1251;104766;-73
2023/03/08 08:44:58;;;;;;;;;;;;;;;7.33;50.10;95701.73;109019;1250;101645;-74
2023/03/08 08:47:28;;;;;;;;;;;;;;;7.17;50.12;95694.65;108966;1250;99916;-74
2023/03/08 08:49:56;;;;;;;;;;;;;;;7.09;50.25;95703.54;108944;1250;96981;-76
2023/03/08 08:52:24;;;;;;;;;;;;;;;7.15;50.31;95699.44;109006;1249;97003;-74
2023/03/08 08:54:52;;;;;;;;;;;;;;;7.24;50.32;95696.77;108966;1249;113709;-74
2023/03/08 08:57:20;;;;;;;;;;;;;;;7.36;50.17;95694.25;109006;1251;101216;-75
2023/03/08 08:59:49;;;;;;;;;;;;;;;7.52;50.22;95695.33;108929;1250;100116;-74
2023/03/08 09:02:17;;;;;;;;;;;;;;;7.51;50.02;95698.15;108970;1250;96902;-73
2023/03/08 09:04:45;;;;;;;;;;;;;;;7.41;49.88;95698.83;108956;1250;97054;-74
2023/03/08 09:07:13;;;;;;;;;;;;;;;7.43;49.90;95696.55;108974;1253;104629;-75
2023/03/08 09:09:41;;;;;;;;;;;;;;;7.59;49.73;95696.92;108932;1249;101142;-73
2023/03/08 09:12:09;;;;;;;;;;;;;;;7.77;49.37;95691.09;108998;1250;100035;-74
2023/03/08 09:14:37;;;;;;;;;;;;;;;8.04;49.39;95692.59;108974;1251;96948;-73
2023/03/08 09:17:07;;;;;;;;;;;;;;;8.41;48.97;95701.21;109033;1250;96929;-74
2023/03/08 09:19:36;;;;;;;;;;;;;;;8.59;48.38;95699.42;108726;1251;104513;-74
2023/03/08 09:22:04;;;;;;;;;;;;;;;8.77;48.11;95693.67;109007;1250;101409;-73
2023/03/08 09:24:32;;;;;;;;;;;;;;;9.01;47.86;95689.96;108955;1249;99457;-73
2023/03/08 09:27:00;;;;;;;;;;;;;;;9.31;47.77;95688.58;108979;1250;96949;-75
2023/03/08 09:29:28;;;;;;;;;;;;;;;9.63;47.30;95695.53;108720;1249;97258;-73
2023/03/08 09:31:56;;;;;;;;;;;;;;;9.82;46.76;95696.24;108983;1249;105085;-73
2023/03/08 09:34:24;;;;;;;;;;;;;;;9.97;46.23;95696.63;109034;1249;101410;-74
2023/03/08 09:36:52;;;;;;;;;;;;;;;10.13;45.41;95695.00;108948;1250;100219;-76
2023/03/08 09:39:20;;;;;;;;;;;;;;;10.19;45.00;95683.54;108934;1250;97363;-72
2023/03/08 09:41:50;;;;;;;;;;;;;;;10.27;45.01;95679.57;108731;1249;97852;-75
2023/03/08 09:44:18;;;;;;;;;;;;;;;10.52;45.13;95682.94;109027;1250;104715;-74
2023/03/08 09:46:50;;;;;;;;;;;;;;;10.85;45.20;95679.89;108954;1250;101347;-73
2023/03/08 09:49:21;;;;;;;;;;;;;;;11.13;44.88;95686.80;108888;1251;100086;-73
2023/03/08 09:51:52;;;;;;;;;;;;;;;11.33;44.42;95687.40;108858;1251;96941;-75
2023/03/08 09:54:23;;;;;;;;;;;;;;;11.29;43.67;95690.77;108856;1250;96980;-73
2023/03/08 09:56:55;;;;;;;;;;;;;;;11.09;43.66;95690.66;108925;1251;104879;-73
2023/03/08 09:59:31;;;;;;;;;;;;;;;10.81;43.52;95687.25;108680;1251;100658;-74
2023/03/08 10:01:59;;;;;;;;;;;;;;;10.79;43.70;95685.94;108922;1251;100210;-73
2023/03/08 10:04:40;;;;;;;;;;;;;;;10.99;43.78;95680.42;108879;1251;97123;-74
2023/03/08 10:07:18;;;;;;;;;;;;;;;11.33;43.68;95678.38;108676;1251;97383;-74
2023/03/08 10:10:00;;;;;;;;;;;;;;;11.54;43.18;95677.91;108943;1251;103441;-73
2023/03/08 10:12:36;;;;;;;;;;;;;;;11.69;42.94;95671.36;108921;1250;101420;-74
2023/03/08 10:15:09;;;;;;;;;;;;;;;11.89;42.94;95670.23;108986;1249;100118;-74
2023/03/08 10:17:43;;;;;;;;;;;;;;;12.06;42.70;95666.91;108974;1250;96940;-74
2023/03/08 10:20:14;;;;;;;;;;;;;;;12.15;42.16;95668.96;109029;1249;96928;-73
2023/03/08 10:22:42;;;;;;;;;;;;;;;12.13;41.58;95669.75;109036;1250;105254;-76
2023/03/08 10:25:29;;;;;;;;;;;;;;;12.06;40.85;95672.52;109066;1249;100947;-74
2023/03/08 10:27:58;;;;;;;;;;;;;;;11.92;40.82;95665.16;108893;1251;100189;-75
2023/03/08 10:30:28;;;;;;;;;;;;;;;12.08;41.19;95655.77;108989;1251;96980;-74
2023/03/08 10:32:59;;;;;;;;;;;;;;;12.37;41.00;95653.36;109013;1250;97084;-74
2023/03/08 10:35:36;;;;;;;;;;;;;;;12.61;40.20;95652.41;109020;1253;105282;-74
2023/03/08 10:38:15;;;;;;;;;;;;;;;12.58;39.95;95651.48;108946;1249;101219;-74
2023/03/08 10:40:43;;;;;;;;;;;;;;;12.65;39.90;95648.48;108945;1251;99860;-74
2023/03/08 10:43:32;;;;;;;;;;;;;;;12.71;39.26;95650.16;109022;1251;97455;-74
2023/03/08 10:46:05;;;;;;;;;;;;;;;12.79;39.32;95654.13;109028;1250;96929;-74
2023/03/08 10:48:33;;;;;;;;;;;;;;;12.96;39.10;95649.08;109029;1250;104801;-73
2023/03/08 10:51:02;;;;;;;;;;;;;;;13.18;39.30;95647.45;109019;1250;101532;-74
2023/03/08 10:53:31;;;;;;;;;;;;;;;13.37;39.17;95644.09;108986;1249;100050;-75
2023/03/08 10:56:00;;;;;;;;;;;;;;;13.39;38.46;95637.27;108971;1251;96956;-74
2023/03/08 10:58:28;;;;;;;;;;;;;;;13.25;38.25;95632.12;108994;1251;97043;-74
2023/03/08 11:00:57;;;;;;;;;;;;;;;13.26;38.27;95631.91;108933;1251;104120;-73
2023/03/08 11:03:26;;;;;;;;;;;;;;;13.27;38.25;95629.41;108917;1250;101497;-74
2023/03/08 11:05:59;;;;;;;;;;;;;;;13.22;37.93;95636.55;108868;1251;99819;-75
2023/03/08 11:08:27;;;;;;;;;;;;;;;13.14;37.73;95633.30;108880;1250;97101;-76
2023/03/08 11:11:11;;;;;;;;;;;;;;;13.13;37.88;95630.09;108957;1251;97188;-73
2023/03/08 11:13:43;;;;;;;;;;;;;;;13.01;37.70;95640.96;108954;1251;104679;-74
2023/03/08 11:16:14;;;;;;;;;;;;;;;12.88;37.53;95642.30;108984;1249;100330;-74
2023/03/08 11:19:01;;;;;;;;;;;;;;;12.77;37.42;95641.14;108917;1250;99772;-74
2023/03/08 11:21:33;;;;;;;;;;;;;;;12.71;37.21;95641.67;108862;1251;97197;-74
2023/03/08 11:24:19;;;;;;;;;;;;;;;12.53;36.87;95641.84;108884;1251;96995;-74
2023/03/08 11:26:59;;;;;;;;;;;;;;;12.46;37.08;95638.94;108880;1254;104749;-74
2023/03/08 11:29:56;;;;;;;;;;;;;;;12.29;36.69;95634.94;108913;1251;101269;-74
2023/03/08 11:32:40;;;;;;;;;;;;;;;12.32;36.79;95631.80;108243;1259;100012;-74
2023/03/08 11:35:08;;;;;;;;;;;;;;;12.35;36.88;95624.98;108226;1258;98444;-74
2023/03/08 11:37:36;;;;;;;;;;;;;;;12.26;36.60;95623.45;108214;1259;97289;-73
2023/03/08 11:40:16;;;;;;;;;;;;;;;12.26;37.05;95614.20;108269;1258;104792;-74
2023/03/08 11:42:44;;;;;;;;;;;;;;;12.23;36.70;95611.48;108241;1259;101589;-74
2023/03/08 11:45:21;;;;;;;;;;;;;;;12.18;36.92;95610.06;108247;1259;100335;-74
2023/03/08 11:48:08;;;;;;;;;;;;;;;12.31;36.90;95603.88;108246;1261;97068;-74
2023/03/08 11:50:39;;;;;;;;;;;;;;;12.42;37.02;95596.88;108284;1259;97019;-74
2023/03/08 11:53:33;;;;;;;;;;;;;;;12.58;36.81;95590.86;108177;1258;105148;-74
2023/03/08 11:56:01;;;;;;;;;;;;;;;12.57;36.50;95585.76;107933;1265;101295;-73
2023/03/08 11:58:39;;;;;;;;;;;;;;;12.57;36.47;95572.40;107929;1265;99940;-74
2023/03/08 12:01:14;;;;;;;;;;;;;;;12.68;36.31;95570.52;107932;1264;97036;-73
2023/03/08 12:03:44;;;;;;;;;;;;;;;12.84;36.33;95572.37;107938;1265;97392;-73
2023/03/08 12:06:15;;;;;;;;;;;;;;;12.90;36.18;95567.19;107932;1265;105284;-73
2023/03/08 12:08:47;;;;;;;;;;;;;;;12.93;36.05;95569.73;108066;1260;101416;-73
2023/03/08 12:11:34;;;;;;;;;;;;;;;12.98;35.75;95570.10;108266;1259;100092;-72
2023/03/08 12:14:12;;;;;;;;;;;;;;;12.85;35.76;95570.05;108255;1260;97374;-74
2023/03/08 12:16:59;;;;;;;;;;;;;;;12.54;35.60;95569.63;108241;1258;97059;-74
2023/03/08 12:19:33;;;;;;;;;;;;;;;12.20;35.90;95572.84;108294;1259;104937;-72
2023/03/08 12:22:20;;;;;;;;;;;;;;;11.92;35.79;95571.06;108251;1259;100289;-73
2023/03/08 12:24:53;;;;;;;;;;;;;;;11.91;36.23;95560.73;108275;1259;100102;-73
2023/03/08 12:27:36;;;;;;;;;;;;;;;12.29;36.72;95553.50;108269;1258;96985;-72
2023/03/08 12:30:03;;;;;;;;;;;;;;;12.64;36.58;95550.59;108278;1259;97018;-74
2023/03/08 12:32:32;;;;;;;;;;;;;;;12.92;35.82;95552.56;108444;1250;104727;-72
2023/03/08 12:35:04;;;;;;;;;;;;;;;13.08;35.08;95553.27;108988;1251;101450;-73
2023/03/08 12:37:32;;;;;;;;;;;;;;;13.23;35.15;95545.70;108903;1250;98495;-73
2023/03/08 12:40:04;;;;;;;;;;;;;;;13.33;34.89;95548.06;108897;1249;96854;-74
2023/03/08 12:42:34;;;;;;;;;;;;;;;13.37;34.27;95545.02;108999;1251;97676;-73
2023/03/08 12:45:14;;;;;;;;;;;;;;;13.24;34.36;95537.56;108934;1250;105096;-74
2023/03/08 12:47:42;;;;;;;;;;;;;;;13.09;34.36;95535.54;108744;1251;101554;-74
2023/03/08 12:50:15;;;;;;;;;;;;;;;12.92;34.47;95531.27;108611;1250;100255;-74
2023/03/08 12:52:43;;;;;;;;;;;;;;;12.80;34.95;95534.80;108908;1251;96966;-74